createdAt,value
2024-03-01T00:10:43.390Z,0.68
2024-03-01T00:25:43.745Z,0.75
2024-03-01T00:40:44.166Z,0.76
2024-03-01T00:55:44.565Z,0.64
2024-03-01T01:10:45.101Z,0.70
2024-03-01T01:25:45.577Z,1.07
2024-03-01T01:40:46.077Z,1.00
2024-03-01T01:55:46.358Z,0.98
2024-03-01T02:10:46.907Z,1.10
2024-03-01T02:25:47.486Z,1.36
2024-03-01T02:40:47.840Z,1.60
2024-03-01T02:55:48.201Z,1.76
2024-03-01T03:10:48.682Z,1.85
2024-03-01T03:25:49.060Z,1.83
2024-03-01T03:40:49.539Z,1.89
2024-03-01T03:55:49.854Z,1.98
2024-03-01T04:10:50.229Z,2.23
2024-03-01T04:25:50.486Z,2.49
2024-03-01T04:40:50.921Z,2.61
2024-03-01T04:55:51.645Z,2.73
2024-03-01T05:10:52.699Z,2.89
2024-03-01T05:25:53.051Z,2.98
2024-03-01T05:40:55.779Z,3.09
2024-03-01T05:55:54.834Z,3.16
2024-03-01T06:10:55.599Z,3.25
2024-03-01T06:25:56.280Z,3.15
2024-03-01T06:40:57.020Z,3.15
2024-03-01T06:55:57.625Z,3.03
2024-03-01T07:10:58.281Z,3.02
2024-03-01T07:25:58.962Z,3.18
2024-03-01T07:40:59.616Z,3.28
2024-03-01T07:56:00.312Z,3.54
2024-03-01T08:11:00.972Z,3.86
2024-03-01T08:26:01.622Z,4.18
2024-03-01T08:41:02.262Z,4.62
2024-03-01T08:56:03.031Z,4.95
2024-03-01T09:11:04.169Z,5.63
2024-03-01T09:26:04.272Z,6.16
2024-03-01T09:41:04.960Z,6.62
2024-03-01T09:56:05.470Z,7.07
2024-03-01T10:11:06.229Z,7.50
2024-03-01T10:26:06.874Z,8.00
2024-03-01T10:41:11.895Z,8.21
2024-03-01T10:56:09.110Z,8.57
2024-03-01T11:11:08.500Z,8.62
2024-03-01T11:26:09.074Z,8.72
2024-03-01T11:41:09.735Z,8.78
2024-03-01T11:56:10.181Z,8.57
2024-03-01T12:11:10.623Z,8.66
2024-03-01T12:26:10.957Z,8.83
2024-03-01T12:41:11.939Z,9.02
2024-03-01T12:56:12.275Z,8.90
2024-03-01T13:11:12.827Z,8.91
2024-03-01T13:26:13.252Z,8.93
2024-03-01T13:41:13.806Z,9.12
2024-03-01T13:56:14.158Z,8.99
2024-03-01T14:11:14.691Z,8.90
2024-03-01T14:26:15.057Z,8.76
2024-03-01T14:41:16.214Z,8.76
2024-03-01T14:56:16.650Z,8.65
2024-03-01T15:11:17.202Z,8.63
2024-03-01T15:26:17.662Z,8.63
2024-03-01T15:41:18.067Z,8.42
2024-03-01T15:56:18.495Z,8.36
2024-03-01T16:11:18.993Z,8.35
2024-03-01T16:26:19.562Z,8.22
2024-03-01T16:41:19.992Z,8.10
2024-03-01T16:56:20.485Z,7.97
2024-03-01T17:11:20.897Z,7.74
2024-03-01T17:26:23.337Z,7.66
2024-03-01T17:41:22.436Z,7.58
2024-03-01T17:56:23.207Z,7.47
2024-03-01T18:11:23.859Z,7.26
2024-03-01T18:26:24.546Z,6.98
2024-03-01T18:41:25.245Z,6.87
2024-03-01T18:56:25.986Z,6.80
2024-03-01T19:11:26.822Z,6.59
2024-03-01T19:26:27.021Z,6.53
2024-03-01T19:41:27.710Z,6.44
2024-03-01T19:56:28.382Z,6.44
2024-03-01T20:11:29.156Z,6.46
2024-03-01T20:26:29.943Z,6.40
2024-03-01T20:41:30.859Z,6.32
2024-03-01T20:56:31.178Z,6.22
2024-03-01T21:11:31.496Z,6.11
2024-03-01T21:26:32.211Z,6.13
2024-03-01T21:41:33.002Z,6.09
2024-03-01T21:56:33.824Z,5.96
2024-03-01T22:11:34.748Z,5.98
2024-03-01T22:26:35.035Z,5.93
2024-03-01T22:41:35.897Z,5.86
2024-03-01T22:56:36.185Z,5.89
2024-03-01T23:11:37.131Z,5.95
2024-03-01T23:26:37.554Z,6.00
2024-03-01T23:41:37.995Z,5.92
2024-03-01T23:56:38.307Z,5.95
